<?xml version="1.0" encoding="UTF-8" standalone="no" ?>
<gpx xmlns="http://www.topografix.com/GPX/1/1" xmlns:xsi="http://www.w3.org/2001/XMLSchema-instance" xsi:schemaLocation="http://www.topografix.com/GPX/1/1 http://www.topografix.com/GPX/1/1/gpx.xsd" version="1.1" creator="VisuGPX - https://www.visugpx.com">
  <metadata>
    <name>La basse Borie</name>
  </metadata>
  <trk>
    <name><![CDATA[La basse Borie_1]]></name>
    <trkseg>
      <trkpt lat="44.25627" lon="2.49999">
        <ele>660.6</ele>
        <time>2022-07-13T08:00:06.000Z</time>
        <extensions>
          <visugpx:TrkExtension xmlns:visugpx="https://www.visugpx.com/editgpx/">
            <visugpx:node>5</visugpx:node>
            </visugpx:TrkExtension>
        </extensions>
      </trkpt>
      <trkpt lat="44.25624" lon="2.50001">
        <ele>660.5</ele>
        <time>2022-07-13T08:00:06.755Z</time>
      </trkpt>
      <trkpt lat="44.25603" lon="2.50003">
        <ele>659.8</ele>
        <time>2022-07-13T08:00:10.984Z</time>
      </trkpt>
      <trkpt lat="44.25597" lon="2.50002">
        <ele>659.6</ele>
        <time>2022-07-13T08:00:12.200Z</time>
      </trkpt>
      <trkpt lat="44.25593" lon="2.49998">
        <ele>659.3</ele>
        <time>2022-07-13T08:00:12.972Z</time>
      </trkpt>
      <trkpt lat="44.25591" lon="2.49988">
        <ele>658.7</ele>
        <time>2022-07-13T08:00:14.190Z</time>
      </trkpt>
      <trkpt lat="44.25587" lon="2.49941">
        <ele>655</ele>
        <time>2022-07-13T08:00:19.741Z</time>
      </trkpt>
      <trkpt lat="44.25585" lon="2.49933">
        <ele>653.9</ele>
        <time>2022-07-13T08:00:20.735Z</time>
      </trkpt>
      <trkpt lat="44.25582" lon="2.49917">
        <ele>651.8</ele>
        <time>2022-07-13T08:00:22.675Z</time>
      </trkpt>
      <trkpt lat="44.25582" lon="2.499">
        <ele>650</ele>
        <time>2022-07-13T08:00:24.669Z</time>
      </trkpt>
      <trkpt lat="44.25584" lon="2.49886">
        <ele>648.6</ele>
        <time>2022-07-13T08:00:26.344Z</time>
      </trkpt>
      <trkpt lat="44.2559" lon="2.49869">
        <ele>646.3</ele>
        <time>2022-07-13T08:00:28.567Z</time>
      </trkpt>
      <trkpt lat="44.25603" lon="2.49848">
        <ele>644.6</ele>
        <time>2022-07-13T08:00:31.823Z</time>
      </trkpt>
      <trkpt lat="44.25621" lon="2.49825">
        <ele>642.3</ele>
        <time>2022-07-13T08:00:35.819Z</time>
      </trkpt>
      <trkpt lat="44.25634" lon="2.49811">
        <ele>641.3</ele>
        <time>2022-07-13T08:00:38.394Z</time>
      </trkpt>
      <trkpt lat="44.2565" lon="2.49799">
        <ele>640.7</ele>
        <time>2022-07-13T08:00:42.051Z</time>
      </trkpt>
      <trkpt lat="44.25666" lon="2.4979">
        <ele>639.6</ele>
        <time>2022-07-13T08:00:44.697Z</time>
      </trkpt>
      <trkpt lat="44.25703" lon="2.49789">
        <ele>640.4</ele>
        <time>2022-07-13T08:01:10.668Z</time>
      </trkpt>
      <trkpt lat="44.25708" lon="2.49787">
        <ele>640.3</ele>
        <time>2022-07-13T08:01:11.886Z</time>
      </trkpt>
      <trkpt lat="44.25715" lon="2.4978">
        <ele>639.6</ele>
        <time>2022-07-13T08:01:13.296Z</time>
      </trkpt>
      <trkpt lat="44.25719" lon="2.49771">
        <ele>640.5</ele>
        <time>2022-07-13T08:01:26.864Z</time>
      </trkpt>
      <trkpt lat="44.25718" lon="2.4976">
        <ele>641.8</ele>
        <time>2022-07-13T08:01:44.104Z</time>
      </trkpt>
      <trkpt lat="44.25712" lon="2.4975">
        <ele>641.8</ele>
        <time>2022-07-13T08:01:49.362Z</time>
      </trkpt>
      <trkpt lat="44.25696" lon="2.49739">
        <ele>640.3</ele>
        <time>2022-07-13T08:01:52.283Z</time>
      </trkpt>
      <trkpt lat="44.2569" lon="2.4973">
        <ele>640.6</ele>
        <time>2022-07-13T08:01:59.487Z</time>
      </trkpt>
      <trkpt lat="44.25678" lon="2.4965">
        <ele>640.6</ele>
        <time>2022-07-13T08:02:32.435Z</time>
      </trkpt>
      <trkpt lat="44.25674" lon="2.49642">
        <ele>641.4</ele>
        <time>2022-07-13T08:02:44.343Z</time>
      </trkpt>
      <trkpt lat="44.25667" lon="2.49636">
        <ele>642.2</ele>
        <time>2022-07-13T08:02:56.068Z</time>
      </trkpt>
      <trkpt lat="44.2566" lon="2.49634">
        <ele>642.4</ele>
        <time>2022-07-13T08:03:01.476Z</time>
      </trkpt>
      <trkpt lat="44.25653" lon="2.49635">
        <ele>642.3</ele>
        <time>2022-07-13T08:03:03.228Z</time>
      </trkpt>
      <trkpt lat="44.25651" lon="2.49631">
        <ele>642.7</ele>
        <time>2022-07-13T08:03:09.182Z</time>
      </trkpt>
      <trkpt lat="44.25647" lon="2.49622">
        <ele>643.6</ele>
        <time>2022-07-13T08:03:22.749Z</time>
      </trkpt>
      <trkpt lat="44.25648" lon="2.49606">
        <ele>645.3</ele>
        <time>2022-07-13T08:03:47.721Z</time>
      </trkpt>
      <trkpt lat="44.25669" lon="2.49548">
        <ele>651.4</ele>
        <time>2022-07-13T08:05:25.403Z</time>
      </trkpt>
      <trkpt lat="44.25679" lon="2.49527">
        <ele>655.1</ele>
        <time>2022-07-13T08:06:04.613Z</time>
      </trkpt>
      <trkpt lat="44.25694" lon="2.49509">
        <ele>658.4</ele>
        <time>2022-07-13T08:06:47.550Z</time>
      </trkpt>
      <trkpt lat="44.25696" lon="2.49504">
        <ele>659.2</ele>
        <time>2022-07-13T08:06:56.454Z</time>
      </trkpt>
      <trkpt lat="44.25695" lon="2.49499">
        <ele>660.2</ele>
        <time>2022-07-13T08:07:04.526Z</time>
      </trkpt>
      <trkpt lat="44.25688" lon="2.49482">
        <ele>663</ele>
        <time>2022-07-13T08:07:35.015Z</time>
      </trkpt>
      <trkpt lat="44.25684" lon="2.49415">
        <ele>668.9</ele>
        <time>2022-07-13T08:09:05.313Z</time>
      </trkpt>
      <trkpt lat="44.25681" lon="2.49411">
        <ele>668.5</ele>
        <time>2022-07-13T08:09:05.992Z</time>
      </trkpt>
      <trkpt lat="44.25685" lon="2.49403">
        <ele>669</ele>
        <time>2022-07-13T08:09:14.000Z</time>
      </trkpt>
      <trkpt lat="44.2569" lon="2.49355">
        <ele>669.1</ele>
        <time>2022-07-13T08:09:34.082Z</time>
      </trkpt>
      <trkpt lat="44.25696" lon="2.49337">
        <ele>669.3</ele>
        <time>2022-07-13T08:09:43.268Z</time>
      </trkpt>
      <trkpt lat="44.25719" lon="2.49289">
        <ele>669.2</ele>
        <time>2022-07-13T08:10:05.717Z</time>
      </trkpt>
      <trkpt lat="44.25727" lon="2.49284">
        <ele>670.1</ele>
        <time>2022-07-13T08:10:18.889Z</time>
      </trkpt>
      <trkpt lat="44.25729" lon="2.49284">
        <ele>670.4</ele>
        <time>2022-07-13T08:10:23.231Z</time>
      </trkpt>
      <trkpt lat="44.25733" lon="2.49273">
        <ele>669.9</ele>
        <time>2022-07-13T08:10:24.666Z</time>
      </trkpt>
      <trkpt lat="44.25737" lon="2.49256">
        <ele>668.4</ele>
        <time>2022-07-13T08:10:26.765Z</time>
      </trkpt>
      <trkpt lat="44.25744" lon="2.49242">
        <ele>667.5</ele>
        <time>2022-07-13T08:10:28.768Z</time>
      </trkpt>
      <trkpt lat="44.25784" lon="2.4919">
        <ele>661.4</ele>
        <time>2022-07-13T08:10:37.718Z</time>
      </trkpt>
      <trkpt lat="44.25843" lon="2.49154">
        <ele>658.9</ele>
        <time>2022-07-13T08:10:49.962Z</time>
      </trkpt>
      <trkpt lat="44.25898" lon="2.49118">
        <ele>652.7</ele>
        <time>2022-07-13T08:10:59.910Z</time>
      </trkpt>
      <trkpt lat="44.2599" lon="2.49012">
        <ele>625.2</ele>
        <time>2022-07-13T08:11:19.444Z</time>
      </trkpt>
      <trkpt lat="44.26016" lon="2.48972">
        <ele>617.9</ele>
        <time>2022-07-13T08:11:25.780Z</time>
      </trkpt>
      <trkpt lat="44.26026" lon="2.4895">
        <ele>615.9</ele>
        <time>2022-07-13T08:11:28.836Z</time>
      </trkpt>
      <trkpt lat="44.26032" lon="2.4893">
        <ele>614.6</ele>
        <time>2022-07-13T08:11:31.379Z</time>
      </trkpt>
      <trkpt lat="44.26025" lon="2.48918">
        <ele>614.2</ele>
        <time>2022-07-13T08:11:33.544Z</time>
      </trkpt>
      <trkpt lat="44.26011" lon="2.4892">
        <ele>615.1</ele>
        <time>2022-07-13T08:11:48.787Z</time>
      </trkpt>
      <trkpt lat="44.25972" lon="2.48901">
        <ele>622.4</ele>
        <time>2022-07-13T08:13:18.456Z</time>
      </trkpt>
      <trkpt lat="44.25949" lon="2.48892">
        <ele>626.8</ele>
        <time>2022-07-13T08:14:10.310Z</time>
      </trkpt>
      <trkpt lat="44.25936" lon="2.4889">
        <ele>627.7</ele>
        <time>2022-07-13T08:14:24.991Z</time>
      </trkpt>
      <trkpt lat="44.25926" lon="2.48872">
        <ele>632.1</ele>
        <time>2022-07-13T08:15:00.409Z</time>
      </trkpt>
      <trkpt lat="44.25929" lon="2.48833">
        <ele>640.6</ele>
        <time>2022-07-13T08:16:01.393Z</time>
      </trkpt>
      <trkpt lat="44.25928" lon="2.48801">
        <ele>645.8</ele>
        <time>2022-07-13T08:16:51.193Z</time>
      </trkpt>
      <trkpt lat="44.2592" lon="2.48744">
        <ele>653.4</ele>
        <time>2022-07-13T08:18:21.500Z</time>
      </trkpt>
      <trkpt lat="44.2592" lon="2.48695">
        <ele>657.8</ele>
        <time>2022-07-13T08:19:29.739Z</time>
      </trkpt>
      <trkpt lat="44.25918" lon="2.48657">
        <ele>660.3</ele>
        <time>2022-07-13T08:20:06.662Z</time>
      </trkpt>
      <trkpt lat="44.2589" lon="2.48658">
        <ele>659.4</ele>
        <time>2022-07-13T08:20:12.354Z</time>
      </trkpt>
      <trkpt lat="44.25864" lon="2.48653">
        <ele>657.7</ele>
        <time>2022-07-13T08:20:16.349Z</time>
      </trkpt>
      <trkpt lat="44.25866" lon="2.48628">
        <ele>658.3</ele>
        <time>2022-07-13T08:20:30.940Z</time>
        <extensions>
          <visugpx:TrkExtension xmlns:visugpx="https://www.visugpx.com/editgpx/">
            <visugpx:node>1</visugpx:node>
            </visugpx:TrkExtension>
        </extensions>
      </trkpt>
      <trkpt lat="44.25864" lon="2.48653">
        <ele>657.7</ele>
        <time>2022-07-13T08:20:34.558Z</time>
      </trkpt>
      <trkpt lat="44.2589" lon="2.48658">
        <ele>659.4</ele>
        <time>2022-07-13T08:21:03.154Z</time>
      </trkpt>
      <trkpt lat="44.25918" lon="2.48657">
        <ele>660.3</ele>
        <time>2022-07-13T08:21:25.493Z</time>
      </trkpt>
      <trkpt lat="44.2595" lon="2.48645">
        <ele>660.7</ele>
        <time>2022-07-13T08:21:46.460Z</time>
      </trkpt>
      <trkpt lat="44.25966" lon="2.48621">
        <ele>662.1</ele>
        <time>2022-07-13T08:22:11.124Z</time>
      </trkpt>
      <trkpt lat="44.26018" lon="2.48582">
        <ele>664.6</ele>
        <time>2022-07-13T08:23:05.403Z</time>
      </trkpt>
      <trkpt lat="44.26038" lon="2.48569">
        <ele>665.2</ele>
        <time>2022-07-13T08:23:21.939Z</time>
      </trkpt>
      <trkpt lat="44.26053" lon="2.48565">
        <ele>665.6</ele>
        <time>2022-07-13T08:23:33.247Z</time>
      </trkpt>
      <trkpt lat="44.26082" lon="2.48512">
        <ele>668</ele>
        <time>2022-07-13T08:24:20.331Z</time>
      </trkpt>
      <trkpt lat="44.26152" lon="2.48513">
        <ele>666.4</ele>
        <time>2022-07-13T08:24:36.055Z</time>
      </trkpt>
      <trkpt lat="44.26177" lon="2.4851">
        <ele>663.7</ele>
        <time>2022-07-13T08:24:40.164Z</time>
      </trkpt>
      <trkpt lat="44.26196" lon="2.48492">
        <ele>662.5</ele>
        <time>2022-07-13T08:24:44.031Z</time>
      </trkpt>
      <trkpt lat="44.26209" lon="2.4847">
        <ele>660.9</ele>
        <time>2022-07-13T08:24:47.376Z</time>
      </trkpt>
      <trkpt lat="44.26213" lon="2.48445">
        <ele>660.6</ele>
        <time>2022-07-13T08:24:51.825Z</time>
      </trkpt>
      <trkpt lat="44.26216" lon="2.48415">
        <ele>660.2</ele>
        <time>2022-07-13T08:24:56.955Z</time>
      </trkpt>
      <trkpt lat="44.26227" lon="2.48408">
        <ele>659</ele>
        <time>2022-07-13T08:24:58.935Z</time>
      </trkpt>
      <trkpt lat="44.26252" lon="2.48401">
        <ele>656.9</ele>
        <time>2022-07-13T08:25:03.110Z</time>
      </trkpt>
      <trkpt lat="44.2629" lon="2.48411">
        <ele>659.1</ele>
        <time>2022-07-13T08:25:42.965Z</time>
      </trkpt>
      <trkpt lat="44.26353" lon="2.48408">
        <ele>650.1</ele>
        <time>2022-07-13T08:25:53.289Z</time>
      </trkpt>
      <trkpt lat="44.26376" lon="2.48402">
        <ele>647.8</ele>
        <time>2022-07-13T08:25:57.121Z</time>
      </trkpt>
      <trkpt lat="44.26405" lon="2.48396">
        <ele>647.1</ele>
        <time>2022-07-13T08:26:03.630Z</time>
      </trkpt>
      <trkpt lat="44.26432" lon="2.48394">
        <ele>647.4</ele>
        <time>2022-07-13T08:26:20.569Z</time>
      </trkpt>
      <trkpt lat="44.2644" lon="2.48406">
        <ele>647.9</ele>
        <time>2022-07-13T08:26:31.404Z</time>
      </trkpt>
      <trkpt lat="44.26442" lon="2.48422">
        <ele>649.6</ele>
        <time>2022-07-13T08:26:56.654Z</time>
      </trkpt>
      <trkpt lat="44.26423" lon="2.48452">
        <ele>650.9</ele>
        <time>2022-07-13T08:27:24.040Z</time>
      </trkpt>
      <trkpt lat="44.26416" lon="2.48468">
        <ele>653</ele>
        <time>2022-07-13T08:27:53.188Z</time>
      </trkpt>
      <trkpt lat="44.26411" lon="2.48493">
        <ele>655.8</ele>
        <time>2022-07-13T08:28:33.541Z</time>
      </trkpt>
      <trkpt lat="44.26411" lon="2.48518">
        <ele>658.2</ele>
        <time>2022-07-13T08:29:12.407Z</time>
      </trkpt>
      <trkpt lat="44.26416" lon="2.48556">
        <ele>661.9</ele>
        <time>2022-07-13T08:30:12.472Z</time>
      </trkpt>
      <trkpt lat="44.26423" lon="2.4859">
        <ele>664.2</ele>
        <time>2022-07-13T08:30:46.497Z</time>
      </trkpt>
      <trkpt lat="44.26445" lon="2.4862">
        <ele>669.4</ele>
        <time>2022-07-13T08:31:53.251Z</time>
      </trkpt>
      <trkpt lat="44.26455" lon="2.48648">
        <ele>673.3</ele>
        <time>2022-07-13T08:32:41.893Z</time>
      </trkpt>
      <trkpt lat="44.26464" lon="2.48689">
        <ele>678</ele>
        <time>2022-07-13T08:33:48.559Z</time>
      </trkpt>
      <trkpt lat="44.26473" lon="2.48716">
        <ele>681.7</ele>
        <time>2022-07-13T08:34:34.858Z</time>
      </trkpt>
      <trkpt lat="44.26487" lon="2.48742">
        <ele>685.7</ele>
        <time>2022-07-13T08:35:25.429Z</time>
      </trkpt>
      <trkpt lat="44.26499" lon="2.48755">
        <ele>687.9</ele>
        <time>2022-07-13T08:35:58.400Z</time>
        <extensions>
          <visugpx:TrkExtension xmlns:visugpx="https://www.visugpx.com/editgpx/">
            <visugpx:node>2</visugpx:node>
            </visugpx:TrkExtension>
        </extensions>
      </trkpt>
      <trkpt lat="44.26501" lon="2.48756">
        <ele>688.1</ele>
        <time>2022-07-13T08:36:01.342Z</time>
      </trkpt>
      <trkpt lat="44.26503" lon="2.48757">
        <ele>688.4</ele>
        <time>2022-07-13T08:36:05.953Z</time>
      </trkpt>
      <trkpt lat="44.26509" lon="2.48763">
        <ele>689.3</ele>
        <time>2022-07-13T08:36:19.694Z</time>
      </trkpt>
      <trkpt lat="44.26522" lon="2.48769">
        <ele>691.2</ele>
        <time>2022-07-13T08:36:49.417Z</time>
      </trkpt>
      <trkpt lat="44.2655" lon="2.48775">
        <ele>694.4</ele>
        <time>2022-07-13T08:37:36.872Z</time>
      </trkpt>
      <trkpt lat="44.26565" lon="2.48776">
        <ele>695.7</ele>
        <time>2022-07-13T08:37:56.308Z</time>
      </trkpt>
      <trkpt lat="44.26589" lon="2.48774">
        <ele>697.5</ele>
        <time>2022-07-13T08:38:24.574Z</time>
      </trkpt>
      <trkpt lat="44.26597" lon="2.48775">
        <ele>698.4</ele>
        <time>2022-07-13T08:38:37.894Z</time>
      </trkpt>
      <trkpt lat="44.26603" lon="2.48778">
        <ele>699.1</ele>
        <time>2022-07-13T08:38:48.211Z</time>
      </trkpt>
      <trkpt lat="44.26618" lon="2.48788">
        <ele>700.5</ele>
        <time>2022-07-13T08:39:09.297Z</time>
      </trkpt>
      <trkpt lat="44.26616" lon="2.48795">
        <ele>700.4</ele>
        <time>2022-07-13T08:39:10.572Z</time>
      </trkpt>
      <trkpt lat="44.26618" lon="2.488">
        <ele>700.5</ele>
        <time>2022-07-13T08:39:13.544Z</time>
      </trkpt>
      <trkpt lat="44.26644" lon="2.48842">
        <ele>699.8</ele>
        <time>2022-07-13T08:39:23.040Z</time>
      </trkpt>
      <trkpt lat="44.26648" lon="2.48845">
        <ele>699.8</ele>
        <time>2022-07-13T08:39:25.595Z</time>
      </trkpt>
      <trkpt lat="44.26653" lon="2.48846">
        <ele>699.8</ele>
        <time>2022-07-13T08:39:28.438Z</time>
      </trkpt>
      <trkpt lat="44.26667" lon="2.48867">
        <ele>698.4</ele>
        <time>2022-07-13T08:39:31.803Z</time>
      </trkpt>
      <trkpt lat="44.26686" lon="2.48893">
        <ele>697.9</ele>
        <time>2022-07-13T08:39:38.067Z</time>
      </trkpt>
      <trkpt lat="44.26735" lon="2.49011">
        <ele>705.6</ele>
        <time>2022-07-13T08:41:36.581Z</time>
      </trkpt>
      <trkpt lat="44.26777" lon="2.49085">
        <ele>711.9</ele>
        <time>2022-07-13T08:43:09.372Z</time>
      </trkpt>
      <trkpt lat="44.26799" lon="2.49141">
        <ele>715.3</ele>
        <time>2022-07-13T08:44:02.923Z</time>
      </trkpt>
      <trkpt lat="44.26802" lon="2.49151">
        <ele>715.7</ele>
        <time>2022-07-13T08:44:10.641Z</time>
      </trkpt>
      <trkpt lat="44.26801" lon="2.49188">
        <ele>715</ele>
        <time>2022-07-13T08:44:16.366Z</time>
      </trkpt>
      <trkpt lat="44.26801" lon="2.49197">
        <ele>714.9</ele>
        <time>2022-07-13T08:44:17.945Z</time>
      </trkpt>
      <trkpt lat="44.26801" lon="2.492">
        <ele>714.9</ele>
        <time>2022-07-13T08:44:19.154Z</time>
      </trkpt>
      <trkpt lat="44.26809" lon="2.49196">
        <ele>714.7</ele>
        <time>2022-07-13T08:44:21.048Z</time>
        <extensions>
          <visugpx:TrkExtension xmlns:visugpx="https://www.visugpx.com/editgpx/">
            <visugpx:node>3</visugpx:node>
            </visugpx:TrkExtension>
        </extensions>
      </trkpt>
      <trkpt lat="44.26801" lon="2.492">
        <ele>714.9</ele>
        <time>2022-07-13T08:44:27.145Z</time>
      </trkpt>
      <trkpt lat="44.26793" lon="2.4921">
        <ele>714.8</ele>
        <time>2022-07-13T08:44:29.995Z</time>
      </trkpt>
      <trkpt lat="44.26731" lon="2.49337">
        <ele>715.4</ele>
        <time>2022-07-13T08:45:35.198Z</time>
      </trkpt>
      <trkpt lat="44.26714" lon="2.49369">
        <ele>715.8</ele>
        <time>2022-07-13T08:45:53.622Z</time>
      </trkpt>
      <trkpt lat="44.26714" lon="2.49373">
        <ele>715.8</ele>
        <time>2022-07-13T08:45:55.234Z</time>
      </trkpt>
      <trkpt lat="44.26686" lon="2.49572">
        <ele>706.5</ele>
        <time>2022-07-13T08:46:17.466Z</time>
      </trkpt>
      <trkpt lat="44.26642" lon="2.49656">
        <ele>703.2</ele>
        <time>2022-07-13T08:46:30.932Z</time>
      </trkpt>
      <trkpt lat="44.26636" lon="2.49672">
        <ele>703</ele>
        <time>2022-07-13T08:46:34.103Z</time>
      </trkpt>
      <trkpt lat="44.26632" lon="2.49693">
        <ele>702.5</ele>
        <time>2022-07-13T08:46:37.266Z</time>
      </trkpt>
      <trkpt lat="44.26622" lon="2.49893">
        <ele>702.9</ele>
        <time>2022-07-13T08:48:00.186Z</time>
      </trkpt>
      <trkpt lat="44.26621" lon="2.49995">
        <ele>704.7</ele>
        <time>2022-07-13T08:48:53.284Z</time>
      </trkpt>
      <trkpt lat="44.26619" lon="2.50014">
        <ele>704.4</ele>
        <time>2022-07-13T08:48:56.410Z</time>
      </trkpt>
      <trkpt lat="44.26596" lon="2.50159">
        <ele>703</ele>
        <time>2022-07-13T08:49:23.250Z</time>
      </trkpt>
      <trkpt lat="44.26594" lon="2.50176">
        <ele>702.9</ele>
        <time>2022-07-13T08:49:26.578Z</time>
      </trkpt>
      <trkpt lat="44.26592" lon="2.50184">
        <ele>702.8</ele>
        <time>2022-07-13T08:49:28.048Z</time>
      </trkpt>
      <trkpt lat="44.26583" lon="2.50213">
        <ele>703</ele>
        <time>2022-07-13T08:49:41.908Z</time>
      </trkpt>
      <trkpt lat="44.26574" lon="2.50256">
        <ele>703.3</ele>
        <time>2022-07-13T08:50:01.655Z</time>
      </trkpt>
      <trkpt lat="44.26572" lon="2.50264">
        <ele>703.4</ele>
        <time>2022-07-13T08:50:05.678Z</time>
      </trkpt>
      <trkpt lat="44.2657" lon="2.50273">
        <ele>703.5</ele>
        <time>2022-07-13T08:50:10.072Z</time>
      </trkpt>
      <trkpt lat="44.26558" lon="2.50294">
        <ele>704.4</ele>
        <time>2022-07-13T08:50:28.615Z</time>
      </trkpt>
      <trkpt lat="44.26546" lon="2.50319">
        <ele>705</ele>
        <time>2022-07-13T08:50:44.897Z</time>
      </trkpt>
      <trkpt lat="44.26538" lon="2.50333">
        <ele>705</ele>
        <time>2022-07-13T08:50:52.116Z</time>
      </trkpt>
      <trkpt lat="44.26531" lon="2.50349">
        <ele>705.5</ele>
        <time>2022-07-13T08:51:03.585Z</time>
      </trkpt>
      <trkpt lat="44.26522" lon="2.50369">
        <ele>705.8</ele>
        <time>2022-07-13T08:51:14.951Z</time>
      </trkpt>
      <trkpt lat="44.26513" lon="2.50384">
        <ele>705.5</ele>
        <time>2022-07-13T08:51:18.152Z</time>
      </trkpt>
      <trkpt lat="44.26497" lon="2.50408">
        <ele>704.2</ele>
        <time>2022-07-13T08:51:22.005Z</time>
      </trkpt>
      <trkpt lat="44.26482" lon="2.5043">
        <ele>702.7</ele>
        <time>2022-07-13T08:51:25.567Z</time>
      </trkpt>
      <trkpt lat="44.26462" lon="2.50447">
        <ele>701.5</ele>
        <time>2022-07-13T08:51:29.545Z</time>
      </trkpt>
      <trkpt lat="44.26334" lon="2.50529">
        <ele>692.9</ele>
        <time>2022-07-13T08:51:51.610Z</time>
      </trkpt>
      <trkpt lat="44.26284" lon="2.50569">
        <ele>688.5</ele>
        <time>2022-07-13T08:52:01.047Z</time>
      </trkpt>
      <trkpt lat="44.26335" lon="2.50671">
        <ele>676.3</ele>
        <time>2022-07-13T08:52:15.637Z</time>
      </trkpt>
      <trkpt lat="44.26358" lon="2.50753">
        <ele>664</ele>
        <time>2022-07-13T08:52:25.965Z</time>
      </trkpt>
      <trkpt lat="44.26372" lon="2.50828">
        <ele>655.4</ele>
        <time>2022-07-13T08:52:35.055Z</time>
      </trkpt>
      <trkpt lat="44.26369" lon="2.50845">
        <ele>653</ele>
        <time>2022-07-13T08:52:37.109Z</time>
      </trkpt>
      <trkpt lat="44.26359" lon="2.50836">
        <ele>651.3</ele>
        <time>2022-07-13T08:52:39.057Z</time>
      </trkpt>
      <trkpt lat="44.26355" lon="2.50838">
        <ele>650.1</ele>
        <time>2022-07-13T08:52:39.753Z</time>
      </trkpt>
      <trkpt lat="44.26344" lon="2.50868">
        <ele>645.2</ele>
        <time>2022-07-13T08:52:43.706Z</time>
      </trkpt>
      <trkpt lat="44.26332" lon="2.50877">
        <ele>642.4</ele>
        <time>2022-07-13T08:52:45.936Z</time>
        <extensions>
          <visugpx:TrkExtension xmlns:visugpx="https://www.visugpx.com/editgpx/">
            <visugpx:node>4</visugpx:node>
            </visugpx:TrkExtension>
        </extensions>
      </trkpt>
      <trkpt lat="44.26324" lon="2.50883">
        <ele>641.4</ele>
        <time>2022-07-13T08:52:47.423Z</time>
      </trkpt>
      <trkpt lat="44.26313" lon="2.50899">
        <ele>641.3</ele>
        <time>2022-07-13T08:52:55.577Z</time>
      </trkpt>
      <trkpt lat="44.26304" lon="2.50917">
        <ele>641.5</ele>
        <time>2022-07-13T08:53:05.592Z</time>
      </trkpt>
      <trkpt lat="44.26299" lon="2.50933">
        <ele>642.4</ele>
        <time>2022-07-13T08:53:19.966Z</time>
      </trkpt>
      <trkpt lat="44.26302" lon="2.51011">
        <ele>653.9</ele>
        <time>2022-07-13T08:55:21.404Z</time>
      </trkpt>
      <trkpt lat="44.26302" lon="2.51098">
        <ele>659</ele>
        <time>2022-07-13T08:56:38.893Z</time>
      </trkpt>
      <trkpt lat="44.26243" lon="2.51075">
        <ele>648.7</ele>
        <time>2022-07-13T08:56:48.925Z</time>
      </trkpt>
      <trkpt lat="44.26186" lon="2.51082">
        <ele>637.8</ele>
        <time>2022-07-13T08:56:58.296Z</time>
      </trkpt>
      <trkpt lat="44.26167" lon="2.51061">
        <ele>631.1</ele>
        <time>2022-07-13T08:57:02.265Z</time>
      </trkpt>
      <trkpt lat="44.26158" lon="2.51066">
        <ele>628.3</ele>
        <time>2022-07-13T08:57:03.851Z</time>
      </trkpt>
      <trkpt lat="44.26156" lon="2.51092">
        <ele>626.6</ele>
        <time>2022-07-13T08:57:06.918Z</time>
      </trkpt>
      <trkpt lat="44.26148" lon="2.5109">
        <ele>624.4</ele>
        <time>2022-07-13T08:57:08.249Z</time>
      </trkpt>
      <trkpt lat="44.26139" lon="2.51075">
        <ele>621.6</ele>
        <time>2022-07-13T08:57:10.544Z</time>
      </trkpt>
      <trkpt lat="44.26097" lon="2.51039">
        <ele>619.3</ele>
        <time>2022-07-13T08:57:19.259Z</time>
      </trkpt>
      <trkpt lat="44.26084" lon="2.51029">
        <ele>618.2</ele>
        <time>2022-07-13T08:57:21.689Z</time>
      </trkpt>
      <trkpt lat="44.26081" lon="2.51028">
        <ele>618</ele>
        <time>2022-07-13T08:57:22.158Z</time>
      </trkpt>
      <trkpt lat="44.26059" lon="2.51016">
        <ele>618.1</ele>
        <time>2022-07-13T08:57:35.988Z</time>
      </trkpt>
      <trkpt lat="44.2604" lon="2.51005">
        <ele>617.5</ele>
        <time>2022-07-13T08:57:40.299Z</time>
      </trkpt>
      <trkpt lat="44.25976" lon="2.5098">
        <ele>617.6</ele>
        <time>2022-07-13T08:58:18.225Z</time>
      </trkpt>
      <trkpt lat="44.25768" lon="2.50876">
        <ele>615.5</ele>
        <time>2022-07-13T08:59:16.712Z</time>
      </trkpt>
      <trkpt lat="44.25721" lon="2.5088">
        <ele>608.4</ele>
        <time>2022-07-13T08:59:24.423Z</time>
      </trkpt>
      <trkpt lat="44.25695" lon="2.5092">
        <ele>608.1</ele>
        <time>2022-07-13T08:59:34.911Z</time>
      </trkpt>
      <trkpt lat="44.25641" lon="2.50946">
        <ele>614.9</ele>
        <time>2022-07-13T09:01:17.565Z</time>
      </trkpt>
      <trkpt lat="44.25561" lon="2.50989">
        <ele>623.2</ele>
        <time>2022-07-13T09:03:19.263Z</time>
      </trkpt>
      <trkpt lat="44.25508" lon="2.51036">
        <ele>628.3</ele>
        <time>2022-07-13T09:04:36.948Z</time>
      </trkpt>
      <trkpt lat="44.25487" lon="2.51101">
        <ele>629</ele>
        <time>2022-07-13T09:05:09.819Z</time>
      </trkpt>
      <trkpt lat="44.25456" lon="2.51133">
        <ele>631.1</ele>
        <time>2022-07-13T09:05:48.905Z</time>
      </trkpt>
      <trkpt lat="44.25397" lon="2.51181">
        <ele>622.1</ele>
        <time>2022-07-13T09:06:00.088Z</time>
      </trkpt>
      <trkpt lat="44.25371" lon="2.51179">
        <ele>619.4</ele>
        <time>2022-07-13T09:06:04.352Z</time>
      </trkpt>
      <trkpt lat="44.25364" lon="2.5117">
        <ele>618.6</ele>
        <time>2022-07-13T09:06:05.911Z</time>
      </trkpt>
      <trkpt lat="44.25359" lon="2.51153">
        <ele>618</ele>
        <time>2022-07-13T09:06:08.261Z</time>
      </trkpt>
      <trkpt lat="44.25345" lon="2.511">
        <ele>615.7</ele>
        <time>2022-07-13T09:06:14.820Z</time>
      </trkpt>
      <trkpt lat="44.25323" lon="2.51065">
        <ele>617.7</ele>
        <time>2022-07-13T09:06:49.936Z</time>
      </trkpt>
      <trkpt lat="44.25303" lon="2.51047">
        <ele>616.4</ele>
        <time>2022-07-13T09:06:53.865Z</time>
      </trkpt>
      <trkpt lat="44.25281" lon="2.51022">
        <ele>612.3</ele>
        <time>2022-07-13T09:06:58.510Z</time>
      </trkpt>
      <trkpt lat="44.25249" lon="2.50991">
        <ele>608.4</ele>
        <time>2022-07-13T09:07:04.889Z</time>
      </trkpt>
      <trkpt lat="44.2524" lon="2.50979">
        <ele>607.4</ele>
        <time>2022-07-13T09:07:06.927Z</time>
      </trkpt>
      <trkpt lat="44.25225" lon="2.50934">
        <ele>605.8</ele>
        <time>2022-07-13T09:07:13.309Z</time>
      </trkpt>
      <trkpt lat="44.25205" lon="2.50891">
        <ele>607</ele>
        <time>2022-07-13T09:07:42.806Z</time>
      </trkpt>
      <trkpt lat="44.25193" lon="2.50883">
        <ele>609.9</ele>
        <time>2022-07-13T09:08:11.674Z</time>
      </trkpt>
      <trkpt lat="44.25179" lon="2.50893">
        <ele>610.9</ele>
        <time>2022-07-13T09:08:28.663Z</time>
      </trkpt>
      <trkpt lat="44.25163" lon="2.50908">
        <ele>610.3</ele>
        <time>2022-07-13T09:08:32.621Z</time>
      </trkpt>
      <trkpt lat="44.25151" lon="2.50915">
        <ele>610.4</ele>
        <time>2022-07-13T09:08:40.495Z</time>
      </trkpt>
      <trkpt lat="44.25142" lon="2.50926">
        <ele>610</ele>
        <time>2022-07-13T09:08:42.894Z</time>
      </trkpt>
      <trkpt lat="44.25132" lon="2.50944">
        <ele>610.8</ele>
        <time>2022-07-13T09:08:58.850Z</time>
      </trkpt>
      <trkpt lat="44.25127" lon="2.50993">
        <ele>606.7</ele>
        <time>2022-07-13T09:09:04.656Z</time>
      </trkpt>
      <trkpt lat="44.25109" lon="2.51046">
        <ele>603.3</ele>
        <time>2022-07-13T09:09:11.536Z</time>
      </trkpt>
      <trkpt lat="44.2508" lon="2.51095">
        <ele>598.6</ele>
        <time>2022-07-13T09:09:18.993Z</time>
      </trkpt>
      <trkpt lat="44.2507" lon="2.51112">
        <ele>595.3</ele>
        <time>2022-07-13T09:09:21.573Z</time>
      </trkpt>
      <trkpt lat="44.25011" lon="2.51173">
        <ele>586.8</ele>
        <time>2022-07-13T09:09:33.597Z</time>
      </trkpt>
      <trkpt lat="44.2499" lon="2.5118">
        <ele>586.4</ele>
        <time>2022-07-13T09:09:38.697Z</time>
      </trkpt>
      <trkpt lat="44.2498" lon="2.51177">
        <ele>585.6</ele>
        <time>2022-07-13T09:09:40.372Z</time>
      </trkpt>
      <trkpt lat="44.24974" lon="2.51176">
        <ele>585.1</ele>
        <time>2022-07-13T09:09:41.362Z</time>
      </trkpt>
      <trkpt lat="44.24968" lon="2.51177">
        <ele>583.9</ele>
        <time>2022-07-13T09:09:42.351Z</time>
      </trkpt>
      <trkpt lat="44.24955" lon="2.51188">
        <ele>581.7</ele>
        <time>2022-07-13T09:09:44.841Z</time>
      </trkpt>
      <trkpt lat="44.24949" lon="2.51195">
        <ele>581.3</ele>
        <time>2022-07-13T09:09:46.170Z</time>
      </trkpt>
      <trkpt lat="44.24927" lon="2.51213">
        <ele>580.9</ele>
        <time>2022-07-13T09:09:52.405Z</time>
      </trkpt>
      <trkpt lat="44.24922" lon="2.51221">
        <ele>581.3</ele>
        <time>2022-07-13T09:10:00.019Z</time>
      </trkpt>
      <trkpt lat="44.24922" lon="2.51229">
        <ele>582.1</ele>
        <time>2022-07-13T09:10:12.459Z</time>
      </trkpt>
      <trkpt lat="44.24928" lon="2.51246">
        <ele>584.4</ele>
        <time>2022-07-13T09:10:41.929Z</time>
      </trkpt>
      <trkpt lat="44.24927" lon="2.5125">
        <ele>584.5</ele>
        <time>2022-07-13T09:10:44.376Z</time>
      </trkpt>
      <trkpt lat="44.24895" lon="2.5128">
        <ele>579.5</ele>
        <time>2022-07-13T09:10:50.688Z</time>
      </trkpt>
      <trkpt lat="44.24893" lon="2.51287">
        <ele>578.4</ele>
        <time>2022-07-13T09:10:51.572Z</time>
      </trkpt>
      <trkpt lat="44.24893" lon="2.51297">
        <ele>577.5</ele>
        <time>2022-07-13T09:10:52.746Z</time>
      </trkpt>
      <trkpt lat="44.24895" lon="2.51302">
        <ele>577.4</ele>
        <time>2022-07-13T09:10:53.651Z</time>
        <extensions>
          <visugpx:TrkExtension xmlns:visugpx="https://www.visugpx.com/editgpx/">
            <visugpx:node>6</visugpx:node>
            </visugpx:TrkExtension>
        </extensions>
      </trkpt>
      <trkpt lat="44.24896" lon="2.51306">
        <ele>577.1</ele>
        <time>2022-07-13T09:10:54.148Z</time>
      </trkpt>
      <trkpt lat="44.24903" lon="2.51315">
        <ele>575.5</ele>
        <time>2022-07-13T09:10:55.707Z</time>
      </trkpt>
      <trkpt lat="44.24911" lon="2.51328">
        <ele>572.7</ele>
        <time>2022-07-13T09:10:57.717Z</time>
      </trkpt>
      <trkpt lat="44.24904" lon="2.5133">
        <ele>570.8</ele>
        <time>2022-07-13T09:10:58.888Z</time>
      </trkpt>
      <trkpt lat="44.24883" lon="2.51319">
        <ele>569.8</ele>
        <time>2022-07-13T09:11:02.929Z</time>
      </trkpt>
      <trkpt lat="44.24876" lon="2.51307">
        <ele>570.5</ele>
        <time>2022-07-13T09:11:14.867Z</time>
      </trkpt>
      <trkpt lat="44.24873" lon="2.51288">
        <ele>571</ele>
        <time>2022-07-13T09:11:26.550Z</time>
      </trkpt>
      <trkpt lat="44.24872" lon="2.51295">
        <ele>570.1</ele>
        <time>2022-07-13T09:11:27.387Z</time>
      </trkpt>
      <trkpt lat="44.24871" lon="2.5131">
        <ele>568</ele>
        <time>2022-07-13T09:11:29.155Z</time>
      </trkpt>
      <trkpt lat="44.24872" lon="2.51313">
        <ele>567.7</ele>
        <time>2022-07-13T09:11:29.543Z</time>
      </trkpt>
      <trkpt lat="44.24895" lon="2.51346">
        <ele>564</ele>
        <time>2022-07-13T09:11:34.944Z</time>
      </trkpt>
      <trkpt lat="44.24903" lon="2.5136">
        <ele>559.4</ele>
        <time>2022-07-13T09:11:37.045Z</time>
      </trkpt>
      <trkpt lat="44.24904" lon="2.5136">
        <ele>559.4</ele>
        <time>2022-07-13T09:11:37.608Z</time>
        <extensions>
          <visugpx:TrkExtension xmlns:visugpx="https://www.visugpx.com/editgpx/">
            <visugpx:node>7</visugpx:node>
            </visugpx:TrkExtension>
        </extensions>
      </trkpt>
      <trkpt lat="44.24903" lon="2.5136">
        <ele>559.4</ele>
        <time>2022-07-13T09:11:38.171Z</time>
      </trkpt>
      <trkpt lat="44.24895" lon="2.51346">
        <ele>564</ele>
        <time>2022-07-13T09:12:06.020Z</time>
      </trkpt>
      <trkpt lat="44.24872" lon="2.51313">
        <ele>567.7</ele>
        <time>2022-07-13T09:13:00.795Z</time>
      </trkpt>
      <trkpt lat="44.24871" lon="2.5131">
        <ele>568</ele>
        <time>2022-07-13T09:13:05.476Z</time>
      </trkpt>
      <trkpt lat="44.24872" lon="2.51295">
        <ele>570.1</ele>
        <time>2022-07-13T09:13:28.902Z</time>
      </trkpt>
      <trkpt lat="44.24873" lon="2.51288">
        <ele>571</ele>
        <time>2022-07-13T09:13:40.002Z</time>
      </trkpt>
      <trkpt lat="44.24876" lon="2.51278">
        <ele>572.9</ele>
        <time>2022-07-13T09:13:56.861Z</time>
      </trkpt>
      <trkpt lat="44.24877" lon="2.51261">
        <ele>572</ele>
        <time>2022-07-13T09:13:58.862Z</time>
      </trkpt>
      <trkpt lat="44.24882" lon="2.51259">
        <ele>573.6</ele>
        <time>2022-07-13T09:14:10.153Z</time>
      </trkpt>
      <trkpt lat="44.24894" lon="2.51244">
        <ele>575.5</ele>
        <time>2022-07-13T09:14:38.729Z</time>
      </trkpt>
      <trkpt lat="44.24896" lon="2.51239">
        <ele>575.3</ele>
        <time>2022-07-13T09:14:39.441Z</time>
      </trkpt>
      <trkpt lat="44.24897" lon="2.51234">
        <ele>574.8</ele>
        <time>2022-07-13T09:14:40.050Z</time>
      </trkpt>
      <trkpt lat="44.24895" lon="2.51231">
        <ele>573.6</ele>
        <time>2022-07-13T09:14:40.531Z</time>
        <extensions>
          <visugpx:TrkExtension xmlns:visugpx="https://www.visugpx.com/editgpx/">
            <visugpx:node>8</visugpx:node>
            </visugpx:TrkExtension>
        </extensions>
      </trkpt>
      <trkpt lat="44.24897" lon="2.51234">
        <ele>574.8</ele>
        <time>2022-07-13T09:14:46.903Z</time>
      </trkpt>
      <trkpt lat="44.24899" lon="2.51228">
        <ele>574.5</ele>
        <time>2022-07-13T09:14:47.633Z</time>
      </trkpt>
      <trkpt lat="44.24909" lon="2.51218">
        <ele>576.6</ele>
        <time>2022-07-13T09:15:14.337Z</time>
      </trkpt>
      <trkpt lat="44.24917" lon="2.51215">
        <ele>578.8</ele>
        <time>2022-07-13T09:15:32.320Z</time>
      </trkpt>
      <trkpt lat="44.24931" lon="2.51204">
        <ele>579.8</ele>
        <time>2022-07-13T09:15:49.509Z</time>
      </trkpt>
      <trkpt lat="44.24955" lon="2.51188">
        <ele>581.7</ele>
        <time>2022-07-13T09:16:19.960Z</time>
      </trkpt>
      <trkpt lat="44.24968" lon="2.51177">
        <ele>583.9</ele>
        <time>2022-07-13T09:16:52.961Z</time>
      </trkpt>
      <trkpt lat="44.24974" lon="2.51176">
        <ele>585.1</ele>
        <time>2022-07-13T09:17:06.078Z</time>
      </trkpt>
      <trkpt lat="44.2498" lon="2.51177">
        <ele>585.6</ele>
        <time>2022-07-13T09:17:13.649Z</time>
      </trkpt>
      <trkpt lat="44.2499" lon="2.5118">
        <ele>586.4</ele>
        <time>2022-07-13T09:17:25.998Z</time>
      </trkpt>
      <trkpt lat="44.25011" lon="2.51173">
        <ele>586.8</ele>
        <time>2022-07-13T09:17:40.633Z</time>
      </trkpt>
      <trkpt lat="44.2507" lon="2.51112">
        <ele>595.3</ele>
        <time>2022-07-13T09:19:47.607Z</time>
      </trkpt>
      <trkpt lat="44.2508" lon="2.51095">
        <ele>598.6</ele>
        <time>2022-07-13T09:20:21.814Z</time>
      </trkpt>
      <trkpt lat="44.25109" lon="2.51046">
        <ele>603.3</ele>
        <time>2022-07-13T09:21:30.616Z</time>
      </trkpt>
      <trkpt lat="44.25127" lon="2.50993">
        <ele>606.7</ele>
        <time>2022-07-13T09:22:22.470Z</time>
      </trkpt>
      <trkpt lat="44.25132" lon="2.50944">
        <ele>610.8</ele>
        <time>2022-07-13T09:23:23.694Z</time>
      </trkpt>
      <trkpt lat="44.25142" lon="2.50926">
        <ele>610</ele>
        <time>2022-07-13T09:23:26.520Z</time>
      </trkpt>
      <trkpt lat="44.25151" lon="2.50915">
        <ele>610.4</ele>
        <time>2022-07-13T09:23:36.225Z</time>
      </trkpt>
      <trkpt lat="44.25183" lon="2.50876">
        <ele>614.7</ele>
        <time>2022-07-13T09:24:39.150Z</time>
      </trkpt>
      <trkpt lat="44.253" lon="2.50767">
        <ele>624.8</ele>
        <time>2022-07-13T09:27:20.647Z</time>
      </trkpt>
      <trkpt lat="44.25386" lon="2.50693">
        <ele>636</ele>
        <time>2022-07-13T09:30:06.016Z</time>
      </trkpt>
      <trkpt lat="44.25397" lon="2.50687">
        <ele>637.4</ele>
        <time>2022-07-13T09:30:27.113Z</time>
      </trkpt>
      <trkpt lat="44.25407" lon="2.5068">
        <ele>638.8</ele>
        <time>2022-07-13T09:30:48.801Z</time>
        <extensions>
          <visugpx:TrkExtension xmlns:visugpx="https://www.visugpx.com/editgpx/">
            <visugpx:node>9</visugpx:node>
            </visugpx:TrkExtension>
        </extensions>
      </trkpt>
      <trkpt lat="44.25424" lon="2.50675">
        <ele>640.7</ele>
        <time>2022-07-13T09:31:16.782Z</time>
      </trkpt>
      <trkpt lat="44.25475" lon="2.50675">
        <ele>644.5</ele>
        <time>2022-07-13T09:32:16.574Z</time>
      </trkpt>
      <trkpt lat="44.25506" lon="2.50676">
        <ele>646</ele>
        <time>2022-07-13T09:32:46.769Z</time>
      </trkpt>
      <trkpt lat="44.25516" lon="2.50676">
        <ele>647.5</ele>
        <time>2022-07-13T09:33:08.477Z</time>
      </trkpt>
      <trkpt lat="44.25533" lon="2.50671">
        <ele>649.5</ele>
        <time>2022-07-13T09:33:38.299Z</time>
      </trkpt>
      <trkpt lat="44.25558" lon="2.50657">
        <ele>652.3</ele>
        <time>2022-07-13T09:34:19.301Z</time>
      </trkpt>
      <trkpt lat="44.25575" lon="2.50644">
        <ele>653.2</ele>
        <time>2022-07-13T09:34:37.940Z</time>
      </trkpt>
      <trkpt lat="44.25617" lon="2.50607">
        <ele>656.6</ele>
        <time>2022-07-13T09:35:33.539Z</time>
      </trkpt>
      <trkpt lat="44.25624" lon="2.50602">
        <ele>657.2</ele>
        <time>2022-07-13T09:35:42.889Z</time>
      </trkpt>
      <trkpt lat="44.25665" lon="2.50571">
        <ele>659.4</ele>
        <time>2022-07-13T09:36:27.943Z</time>
      </trkpt>
      <trkpt lat="44.25725" lon="2.50528">
        <ele>660</ele>
        <time>2022-07-13T09:37:09.268Z</time>
      </trkpt>
      <trkpt lat="44.25816" lon="2.50456">
        <ele>663.2</ele>
        <time>2022-07-13T09:38:31.056Z</time>
      </trkpt>
      <trkpt lat="44.25987" lon="2.50305">
        <ele>669</ele>
        <time>2022-07-13T09:41:05.478Z</time>
      </trkpt>
      <trkpt lat="44.26071" lon="2.50208">
        <ele>670.2</ele>
        <time>2022-07-13T09:42:13.708Z</time>
      </trkpt>
      <trkpt lat="44.26111" lon="2.50146">
        <ele>674.7</ele>
        <time>2022-07-13T09:43:24.207Z</time>
      </trkpt>
      <trkpt lat="44.26115" lon="2.50136">
        <ele>675.3</ele>
        <time>2022-07-13T09:43:33.723Z</time>
      </trkpt>
      <trkpt lat="44.26115" lon="2.5012">
        <ele>676.8</ele>
        <time>2022-07-13T09:43:57.721Z</time>
      </trkpt>
      <trkpt lat="44.26116" lon="2.50091">
        <ele>678.5</ele>
        <time>2022-07-13T09:44:23.560Z</time>
      </trkpt>
      <trkpt lat="44.26121" lon="2.50072">
        <ele>679.3</ele>
        <time>2022-07-13T09:44:38.329Z</time>
      </trkpt>
      <trkpt lat="44.26119" lon="2.50071">
        <ele>679.4</ele>
        <time>2022-07-13T09:44:40.380Z</time>
      </trkpt>
      <trkpt lat="44.26081" lon="2.50044">
        <ele>677</ele>
        <time>2022-07-13T09:44:47.323Z</time>
      </trkpt>
      <trkpt lat="44.26044" lon="2.5002">
        <ele>674.6</ele>
        <time>2022-07-13T09:44:53.830Z</time>
      </trkpt>
      <trkpt lat="44.2604" lon="2.50017">
        <ele>674.4</ele>
        <time>2022-07-13T09:44:54.652Z</time>
      </trkpt>
      <trkpt lat="44.26034" lon="2.50016">
        <ele>674</ele>
        <time>2022-07-13T09:44:55.562Z</time>
      </trkpt>
      <trkpt lat="44.26024" lon="2.50015">
        <ele>673.3</ele>
        <time>2022-07-13T09:44:57.204Z</time>
      </trkpt>
      <trkpt lat="44.25689" lon="2.50042">
        <ele>661.9</ele>
        <time>2022-07-13T09:46:04.133Z</time>
      </trkpt>
      <trkpt lat="44.2567" lon="2.50038">
        <ele>661.7</ele>
        <time>2022-07-13T09:46:09.159Z</time>
      </trkpt>
      <trkpt lat="44.25663" lon="2.50033">
        <ele>661.8</ele>
        <time>2022-07-13T09:46:14.167Z</time>
      </trkpt>
      <trkpt lat="44.25643" lon="2.50012">
        <ele>661.4</ele>
        <time>2022-07-13T09:46:20.264Z</time>
      </trkpt>
      <trkpt lat="44.25635" lon="2.50005">
        <ele>661</ele>
        <time>2022-07-13T09:46:22.000Z</time>
        <extensions>
          <visugpx:TrkExtension xmlns:visugpx="https://www.visugpx.com/editgpx/">
            <visugpx:node>10</visugpx:node>
            </visugpx:TrkExtension>
        </extensions>
      </trkpt>
    </trkseg>
  </trk>
</gpx>